createdAt,value
2018-07-20T00:04:17.303Z,20.20
2018-07-20T00:09:20.348Z,20.00
2018-07-20T00:14:23.441Z,20.00
2018-07-20T00:19:26.481Z,19.90
2018-07-20T00:24:29.590Z,19.90
2018-07-20T00:29:32.813Z,19.80
2018-07-20T00:34:35.863Z,19.80
2018-07-20T00:39:38.934Z,19.70
2018-07-20T00:49:46.370Z,19.60
2018-07-20T00:54:52.045Z,19.50
2018-07-20T00:59:55.150Z,19.40
2018-07-20T01:04:58.252Z,19.30
2018-07-20T01:10:01.253Z,19.30
2018-07-20T01:15:04.460Z,19.20
2018-07-20T01:20:07.901Z,19.10
2018-07-20T01:25:10.925Z,19.10
2018-07-20T01:30:13.944Z,19.00
2018-07-20T01:35:16.986Z,19.00
2018-07-20T01:40:20.007Z,18.90
2018-07-20T01:45:23.003Z,18.80
2018-07-20T01:50:26.043Z,18.80
2018-07-20T01:55:29.063Z,18.70
2018-07-20T02:00:32.087Z,18.70
2018-07-20T02:05:35.117Z,18.60
2018-07-20T02:10:38.168Z,18.50
2018-07-20T02:15:41.194Z,18.40
2018-07-20T02:20:44.228Z,18.40
2018-07-20T02:25:47.256Z,18.30
2018-07-20T02:30:50.280Z,18.30
2018-07-20T02:35:53.312Z,18.30
2018-07-20T02:40:56.340Z,18.30
2018-07-20T02:45:59.352Z,18.30
2018-07-20T02:51:02.371Z,18.20
2018-07-20T02:56:05.441Z,18.20
2018-07-20T03:01:08.552Z,18.10
2018-07-20T03:06:11.608Z,18.20
2018-07-20T03:11:14.665Z,18.10
2018-07-20T03:16:17.742Z,18.10
2018-07-20T03:21:20.763Z,18.10
2018-07-20T03:26:23.798Z,18.00
2018-07-20T03:31:26.806Z,18.00
2018-07-20T03:36:29.844Z,18.00
2018-07-20T03:41:32.892Z,17.90
2018-07-20T03:46:36.144Z,17.90
2018-07-20T03:51:39.176Z,17.90
2018-07-20T03:56:42.178Z,17.90
2018-07-20T04:01:45.212Z,18.00
2018-07-20T04:06:48.218Z,18.00
2018-07-20T04:11:51.274Z,18.10
2018-07-20T04:16:54.295Z,18.20
2018-07-20T04:21:57.382Z,18.20
2018-07-20T04:27:00.406Z,18.30
2018-07-20T04:32:03.458Z,18.40
2018-07-20T04:37:06.481Z,18.50
2018-07-20T04:47:12.338Z,18.70
2018-07-20T04:52:15.361Z,18.80
2018-07-20T04:57:18.399Z,19.00
2018-07-20T05:02:21.429Z,19.10
2018-07-20T05:07:24.470Z,19.20
2018-07-20T05:12:27.542Z,19.30
2018-07-20T05:17:30.648Z,19.40
2018-07-20T05:22:33.741Z,19.50
2018-07-20T05:27:36.759Z,19.80
2018-07-20T05:32:39.961Z,19.90
2018-07-20T05:37:43.106Z,20.00
2018-07-20T05:42:46.151Z,20.00
2018-07-20T05:47:49.177Z,20.30
2018-07-20T05:52:52.303Z,20.50
2018-07-20T05:57:55.373Z,20.60
2018-07-20T06:02:58.460Z,20.80
2018-07-20T06:08:01.508Z,20.90
2018-07-20T06:13:04.649Z,21.10
2018-07-20T06:18:07.703Z,21.30
2018-07-20T06:23:10.708Z,21.50
2018-07-20T06:28:13.934Z,21.40
2018-07-20T06:33:17.036Z,21.40
2018-07-20T06:38:20.060Z,21.50
2018-07-20T06:43:23.222Z,21.70
2018-07-20T06:48:26.255Z,21.70
2018-07-20T06:53:29.402Z,21.90
2018-07-20T06:58:32.436Z,22.10
2018-07-20T07:03:35.448Z,22.20
2018-07-20T07:08:38.445Z,22.30
2018-07-20T07:13:41.573Z,22.30
2018-07-20T07:18:44.666Z,22.30
2018-07-20T07:23:47.784Z,22.20
2018-07-20T07:28:50.882Z,22.40
2018-07-20T07:33:53.971Z,22.40
2018-07-20T07:38:57.076Z,22.50
2018-07-20T07:44:00.104Z,22.50
2018-07-20T07:49:03.134Z,22.60
2018-07-20T07:54:06.233Z,22.90
2018-07-20T07:59:09.268Z,22.50
2018-07-20T08:04:12.299Z,22.80
2018-07-20T08:09:15.363Z,22.80
2018-07-20T08:14:18.520Z,23.10
2018-07-20T08:19:22.447Z,23.40
2018-07-20T08:24:25.534Z,23.40
2018-07-20T08:29:28.694Z,23.60
2018-07-20T08:34:31.691Z,23.70
2018-07-20T08:39:34.812Z,23.90
2018-07-20T08:44:37.915Z,24.10
2018-07-20T08:49:40.967Z,24.10
2018-07-20T08:54:44.184Z,23.90
2018-07-20T08:59:47.527Z,24.10
2018-07-20T09:04:50.559Z,24.30
2018-07-20T09:09:53.585Z,24.60
2018-07-20T09:14:56.687Z,24.70
2018-07-20T09:19:59.742Z,24.70
2018-07-20T09:25:02.823Z,24.70
2018-07-20T09:30:05.864Z,25.00
2018-07-20T09:35:08.956Z,25.30
2018-07-20T09:40:12.031Z,26.00
2018-07-20T09:45:15.084Z,26.40
2018-07-20T09:50:18.128Z,26.80
2018-07-20T09:55:21.214Z,27.40
2018-07-20T10:00:29.811Z,27.90
2018-07-20T10:05:33.130Z,27.60
2018-07-20T10:10:36.332Z,27.50
2018-07-20T10:15:39.381Z,27.50
2018-07-20T10:20:42.382Z,27.00
2018-07-20T10:25:45.504Z,27.10
2018-07-20T10:30:48.519Z,27.90
2018-07-20T10:35:51.577Z,27.50
2018-07-20T10:40:54.654Z,27.60
2018-07-20T10:45:57.708Z,27.40
2018-07-20T10:51:00.792Z,27.50
2018-07-20T10:56:03.930Z,26.70
2018-07-20T11:01:07.227Z,26.80
2018-07-20T11:06:10.274Z,26.70
2018-07-20T11:11:13.489Z,26.80
2018-07-20T11:16:16.530Z,26.90
2018-07-20T11:21:19.642Z,26.50
2018-07-20T11:26:23.045Z,26.50
2018-07-20T11:31:26.434Z,26.70
2018-07-20T11:36:29.744Z,26.90
2018-07-20T11:41:33.163Z,26.90
2018-07-20T11:46:36.642Z,27.40
2018-07-20T11:51:40.100Z,26.60
2018-07-20T11:56:43.511Z,26.60
2018-07-20T12:01:46.997Z,27.60
2018-07-20T12:06:50.101Z,28.30
2018-07-20T12:11:53.157Z,27.40
2018-07-20T12:16:56.487Z,27.00
2018-07-20T12:21:59.494Z,26.70
2018-07-20T12:27:02.571Z,26.50
2018-07-20T12:32:05.603Z,27.60
2018-07-20T12:37:08.687Z,28.70
2018-07-20T12:42:11.755Z,29.00
2018-07-20T12:47:15.098Z,28.90
2018-07-20T12:52:18.147Z,28.40
2018-07-20T12:57:21.239Z,28.90
2018-07-20T13:02:24.335Z,29.40
2018-07-20T13:07:27.372Z,29.40
2018-07-20T13:12:30.424Z,28.20
2018-07-20T13:17:33.427Z,28.10
2018-07-20T13:22:36.449Z,29.20
2018-07-20T13:27:39.540Z,29.80
2018-07-20T13:32:42.604Z,30.20
2018-07-20T13:37:45.638Z,30.30
2018-07-20T13:42:48.743Z,29.70
2018-07-20T13:47:51.771Z,29.50
2018-07-20T13:52:54.879Z,30.10
2018-07-20T13:57:57.861Z,30.20
2018-07-20T14:03:00.867Z,30.10
2018-07-20T14:08:03.937Z,30.40
2018-07-20T14:13:06.972Z,30.70
2018-07-20T14:18:10.082Z,30.40
2018-07-20T14:23:13.078Z,30.30
2018-07-20T14:28:16.206Z,30.50
2018-07-20T14:33:19.232Z,30.30
2018-07-20T14:38:22.515Z,29.60
2018-07-20T14:43:25.604Z,29.70
2018-07-20T14:48:28.612Z,30.40
2018-07-20T14:53:31.662Z,30.70
2018-07-20T14:58:35.638Z,30.50
2018-07-20T15:03:38.727Z,30.90
2018-07-20T15:08:41.849Z,30.70
2018-07-20T15:13:44.929Z,29.70
2018-07-20T15:18:47.985Z,30.00
2018-07-20T15:23:51.088Z,29.30
2018-07-20T15:28:54.131Z,29.00
2018-07-20T15:33:57.608Z,29.10
2018-07-20T15:39:00.630Z,29.40
2018-07-20T15:44:03.693Z,30.20
2018-07-20T15:49:06.758Z,30.70
2018-07-20T15:54:09.823Z,30.50
2018-07-20T15:59:12.951Z,30.80
2018-07-20T16:04:16.074Z,31.00
2018-07-20T16:09:19.164Z,31.20
2018-07-20T16:14:22.296Z,30.60
2018-07-20T16:19:25.768Z,30.90
2018-07-20T16:24:29.302Z,30.80
2018-07-20T16:29:32.737Z,30.80
2018-07-20T16:34:36.235Z,30.10
2018-07-20T16:39:39.721Z,29.90
2018-07-20T16:44:43.141Z,29.70
2018-07-20T16:49:46.541Z,29.50
2018-07-20T16:54:50.086Z,29.20
2018-07-20T16:59:53.440Z,29.40
2018-07-20T17:04:56.950Z,29.40
2018-07-20T17:10:00.342Z,29.50
2018-07-20T17:15:04.066Z,29.40
2018-07-20T17:20:07.467Z,29.30
2018-07-20T17:25:10.971Z,29.20
2018-07-20T17:30:14.382Z,28.90
2018-07-20T17:35:17.870Z,28.90
2018-07-20T17:40:21.121Z,28.70
2018-07-20T17:45:24.287Z,28.40
2018-07-20T17:50:27.679Z,28.20
2018-07-20T17:55:30.892Z,27.90
2018-07-20T18:00:33.931Z,28.10
2018-07-20T18:05:36.991Z,28.30
2018-07-20T18:10:40.042Z,28.20
2018-07-20T18:15:43.080Z,27.90
2018-07-20T18:20:46.140Z,27.70
2018-07-20T18:25:49.182Z,27.50
2018-07-20T18:30:52.930Z,27.10
2018-07-20T18:35:55.966Z,26.90
2018-07-20T18:40:59.042Z,26.80
2018-07-20T18:46:02.104Z,26.70
2018-07-20T18:51:05.175Z,26.50
2018-07-20T18:56:08.232Z,26.30
2018-07-20T19:01:11.320Z,26.30
2018-07-20T19:06:14.460Z,26.10
2018-07-20T19:11:17.507Z,25.90
2018-07-20T19:16:20.580Z,25.70
2018-07-20T19:21:23.636Z,25.50
2018-07-20T19:26:26.698Z,25.40
2018-07-20T19:31:29.756Z,25.30
2018-07-20T19:36:32.900Z,25.10
2018-07-20T19:41:35.975Z,25.00
2018-07-20T19:46:39.240Z,24.90
2018-07-20T19:51:42.569Z,24.80
2018-07-20T19:56:45.999Z,24.70
2018-07-20T20:01:49.421Z,24.60
2018-07-20T20:06:52.538Z,24.50
2018-07-20T20:11:55.545Z,24.40
2018-07-20T20:16:58.602Z,24.30
2018-07-20T20:22:01.626Z,24.20
2018-07-20T20:27:04.827Z,24.20
2018-07-20T20:32:07.845Z,24.10
2018-07-20T20:37:10.940Z,23.90
2018-07-20T20:42:13.975Z,23.70
2018-07-20T20:47:17.047Z,23.60
2018-07-20T20:52:20.435Z,23.60
2018-07-20T20:57:23.572Z,23.50
2018-07-20T21:02:26.652Z,23.30
2018-07-20T21:07:29.870Z,23.20
2018-07-20T21:12:33.186Z,23.20
2018-07-20T21:17:36.223Z,23.10
2018-07-20T21:22:39.335Z,23.10
2018-07-20T21:27:42.374Z,23.10
2018-07-20T21:32:45.407Z,22.90
2018-07-20T21:37:48.441Z,22.90
2018-07-20T21:42:51.490Z,22.90
2018-07-20T21:47:54.549Z,22.90
2018-07-20T21:52:57.571Z,22.80
2018-07-20T21:58:00.674Z,22.70
2018-07-20T22:03:04.546Z,22.60
2018-07-20T22:08:07.556Z,22.60
2018-07-20T22:13:10.628Z,22.50
2018-07-20T22:18:13.730Z,22.40
2018-07-20T22:23:16.790Z,22.30
2018-07-20T22:28:19.813Z,22.20
2018-07-20T22:33:22.849Z,22.20
2018-07-20T22:38:25.891Z,22.10
2018-07-20T22:43:28.949Z,22.00
2018-07-20T22:48:32.007Z,22.00
2018-07-20T22:58:37.953Z,21.80
2018-07-20T23:03:40.986Z,21.80
2018-07-20T23:08:44.310Z,21.60
2018-07-20T23:13:47.346Z,21.60
2018-07-20T23:18:50.366Z,21.50
2018-07-20T23:23:53.404Z,21.40
2018-07-20T23:28:56.419Z,21.30
2018-07-20T23:33:59.529Z,21.20
2018-07-20T23:39:02.575Z,21.10
2018-07-20T23:44:05.920Z,21.10
2018-07-20T23:49:08.965Z,21.00
2018-07-20T23:54:12.102Z,20.90
2018-07-20T23:59:15.149Z,20.90
